createdAt,value
2024-01-30T00:00:26.803Z,10.30
2024-01-30T00:03:12.056Z,10.39
2024-01-30T00:05:59.606Z,9.82
2024-01-30T00:08:45.128Z,10.02
2024-01-30T00:11:30.027Z,10.32
2024-01-30T00:14:15.340Z,9.67
2024-01-30T00:17:00.481Z,9.12
2024-01-30T00:19:45.477Z,9.38
2024-01-30T00:22:30.672Z,9.64
2024-01-30T00:25:15.877Z,9.67
2024-01-30T00:28:01.023Z,9.74
2024-01-30T00:30:46.135Z,9.54
2024-01-30T00:33:31.498Z,9.57
2024-01-30T00:36:16.656Z,9.21
2024-01-30T00:39:01.854Z,8.86
2024-01-30T00:41:48.122Z,8.84
2024-01-30T00:44:32.987Z,8.43
2024-01-30T00:47:18.078Z,8.46
2024-01-30T00:50:03.214Z,8.78
2024-01-30T00:52:48.346Z,9.10
2024-01-30T00:55:33.646Z,8.85
2024-01-30T00:58:18.828Z,8.42
2024-01-30T01:01:04.233Z,8.51
2024-01-30T01:03:49.335Z,8.48
2024-01-30T01:06:34.827Z,8.90
2024-01-30T01:09:19.926Z,9.09
2024-01-30T01:12:05.043Z,8.98
2024-01-30T01:14:50.258Z,8.75
2024-01-30T01:17:35.324Z,8.56
2024-01-30T01:20:20.477Z,8.90
2024-01-30T01:23:05.569Z,8.86
2024-01-30T01:25:50.712Z,8.73
2024-01-30T01:28:35.928Z,8.63
2024-01-30T01:31:21.211Z,9.27
2024-01-30T01:34:06.426Z,8.94
2024-01-30T01:36:51.499Z,9.05
2024-01-30T01:39:36.587Z,8.88
2024-01-30T01:42:21.694Z,9.12
2024-01-30T01:45:06.829Z,9.13
2024-01-30T01:47:52.020Z,8.62
2024-01-30T01:50:37.209Z,8.92
2024-01-30T01:53:22.166Z,9.11
2024-01-30T01:56:07.255Z,8.94
2024-01-30T01:58:52.436Z,8.58
2024-01-30T02:01:37.655Z,8.22
2024-01-30T02:04:25.827Z,8.62
2024-01-30T02:07:11.238Z,8.47
2024-01-30T02:09:56.226Z,8.27
2024-01-30T02:12:41.411Z,8.71
2024-01-30T02:15:26.514Z,8.98
2024-01-30T02:18:11.905Z,8.83
2024-01-30T02:20:57.109Z,9.01
2024-01-30T02:23:42.169Z,9.21
2024-01-30T02:26:27.443Z,9.05
2024-01-30T02:29:12.483Z,8.74
2024-01-30T02:31:57.674Z,9.22
2024-01-30T02:34:42.897Z,9.02
2024-01-30T02:37:28.053Z,8.75
2024-01-30T02:40:13.280Z,9.08
2024-01-30T02:42:58.442Z,8.65
2024-01-30T02:45:43.548Z,8.39
2024-01-30T02:48:28.654Z,8.32
2024-01-30T02:51:13.706Z,8.06
2024-01-30T02:53:58.879Z,8.62
2024-01-30T02:56:44.071Z,8.67
2024-01-30T02:59:29.339Z,8.72
2024-01-30T03:02:14.549Z,8.71
2024-01-30T03:04:59.769Z,8.65
2024-01-30T03:07:44.961Z,8.93
2024-01-30T03:10:30.211Z,8.45
2024-01-30T03:13:15.355Z,8.49
2024-01-30T03:16:00.696Z,8.17
2024-01-30T03:18:45.763Z,8.23
2024-01-30T03:21:31.017Z,8.73
2024-01-30T03:24:16.175Z,8.57
2024-01-30T03:27:01.290Z,8.12
2024-01-30T03:29:46.345Z,8.28
2024-01-30T03:32:31.404Z,8.77
2024-01-30T03:35:16.663Z,8.96
2024-01-30T03:38:01.624Z,9.13
2024-01-30T03:40:46.766Z,8.76
2024-01-30T03:43:31.968Z,8.40
2024-01-30T03:46:17.002Z,8.29
2024-01-30T03:49:02.231Z,8.34
2024-01-30T03:51:47.268Z,8.24
2024-01-30T03:54:32.685Z,8.43
2024-01-30T03:57:17.593Z,8.65
2024-01-30T04:00:03.561Z,8.52
2024-01-30T04:02:48.639Z,8.29
2024-01-30T04:05:33.707Z,8.16
2024-01-30T04:08:18.875Z,8.77
2024-01-30T04:11:03.973Z,8.72
2024-01-30T04:13:49.364Z,8.41
2024-01-30T04:16:34.320Z,7.98
2024-01-30T04:19:19.505Z,8.10
2024-01-30T04:22:04.811Z,7.85
2024-01-30T04:24:49.856Z,8.27
2024-01-30T04:27:35.107Z,8.27
2024-01-30T04:30:19.884Z,8.21
2024-01-30T04:33:05.022Z,8.47
2024-01-30T04:35:50.335Z,8.63
2024-01-30T04:38:35.483Z,8.84
2024-01-30T04:41:20.611Z,8.86
2024-01-30T04:44:05.803Z,8.92
2024-01-30T04:46:51.090Z,9.06
2024-01-30T04:49:36.335Z,8.77
2024-01-30T04:52:21.689Z,9.14
2024-01-30T04:55:07.186Z,8.53
2024-01-30T04:57:52.221Z,8.65
2024-01-30T05:00:37.450Z,8.70
2024-01-30T05:03:22.610Z,8.70
2024-01-30T05:06:07.923Z,8.93
2024-01-30T05:08:52.925Z,8.86
2024-01-30T05:11:38.239Z,8.89
2024-01-30T05:14:23.292Z,8.99
2024-01-30T05:17:10.442Z,9.31
2024-01-30T05:19:55.621Z,9.42
2024-01-30T05:22:40.810Z,9.05
2024-01-30T05:25:26.166Z,8.71
2024-01-30T05:28:11.466Z,8.92
2024-01-30T05:30:56.328Z,9.16
2024-01-30T05:33:41.843Z,9.02
2024-01-30T05:36:26.638Z,8.60
2024-01-30T05:39:11.857Z,8.33
2024-01-30T05:41:56.970Z,8.48
2024-01-30T05:44:42.177Z,8.34
2024-01-30T05:47:27.483Z,8.42
2024-01-30T05:50:12.706Z,8.63
2024-01-30T05:52:58.076Z,8.88
2024-01-30T05:55:43.285Z,8.86
2024-01-30T05:58:28.491Z,8.52
2024-01-30T06:01:13.559Z,8.67
2024-01-30T06:03:58.688Z,8.93
2024-01-30T06:06:51.596Z,8.60
2024-01-30T06:09:36.936Z,8.58
2024-01-30T06:12:22.153Z,8.55
2024-01-30T06:15:07.429Z,8.70
2024-01-30T06:17:52.706Z,8.56
2024-01-30T06:20:37.781Z,8.81
2024-01-30T06:23:25.474Z,8.88
2024-01-30T06:26:13.991Z,8.90
2024-01-30T06:28:59.160Z,8.80
2024-01-30T06:31:44.321Z,10.33
2024-01-30T06:34:29.615Z,10.64
2024-01-30T06:37:14.710Z,10.85
2024-01-30T06:39:59.875Z,10.68
2024-01-30T06:42:45.089Z,10.83
2024-01-30T06:45:30.248Z,11.03
2024-01-30T06:48:15.415Z,10.75
2024-01-30T06:51:28.006Z,10.64
2024-01-30T06:54:13.226Z,10.74
2024-01-30T06:56:58.116Z,10.85
2024-01-30T06:59:43.195Z,11.02
2024-01-30T07:02:28.607Z,11.19
2024-01-30T07:05:13.724Z,11.47
2024-01-30T07:07:59.064Z,11.42
2024-01-30T07:10:44.511Z,11.45
2024-01-30T07:13:35.802Z,11.27
2024-01-30T09:57:21.550Z,11.39
2024-01-30T10:00:18.284Z,10.77
2024-01-30T10:03:10.057Z,10.86
2024-01-30T10:06:09.193Z,10.87
2024-01-30T11:11:21.861Z,11.54
2024-01-30T11:29:16.581Z,10.31
2024-01-30T11:30:47.365Z,10.41
2024-01-30T11:48:41.292Z,12.21
2024-01-30T11:51:26.334Z,11.94
2024-01-30T11:54:13.009Z,11.72
2024-01-30T11:57:04.450Z,11.43
2024-01-30T11:59:49.618Z,12.15
2024-01-30T12:02:41.911Z,12.39
2024-01-30T12:05:37.740Z,12.18
2024-01-30T12:30:33.432Z,11.65
2024-01-30T15:49:53.468Z,13.02
2024-01-30T16:14:32.441Z,12.85
2024-01-30T16:17:17.625Z,12.46
2024-01-30T16:20:05.458Z,12.05
2024-01-30T16:22:52.385Z,12.35
2024-01-30T16:25:38.119Z,12.08
2024-01-30T16:28:23.365Z,11.97
2024-01-30T16:31:08.834Z,12.08
2024-01-30T16:33:56.861Z,11.49
2024-01-30T16:36:42.278Z,11.63
2024-01-30T16:39:27.116Z,12.35
2024-01-30T16:42:12.130Z,12.92
2024-01-30T16:45:03.325Z,13.29
2024-01-30T16:47:49.701Z,12.91
2024-01-30T16:50:45.605Z,13.48
2024-01-30T16:53:30.661Z,13.27
2024-01-30T16:56:18.765Z,13.03
2024-01-30T17:02:19.218Z,12.10
2024-01-30T17:05:20.365Z,11.53
2024-01-30T17:14:49.480Z,10.80
2024-01-30T17:32:44.758Z,11.03
2024-01-30T17:35:33.411Z,11.31
2024-01-30T17:38:18.811Z,11.43
2024-01-30T17:41:09.783Z,11.02
2024-01-30T17:43:57.745Z,10.53
2024-01-30T17:46:48.806Z,10.65
2024-01-30T17:49:34.108Z,11.13
2024-01-30T17:52:21.425Z,11.41
2024-01-30T17:55:06.496Z,11.24
2024-01-30T17:57:51.647Z,11.32
2024-01-30T18:00:36.736Z,11.17
2024-01-30T18:03:23.877Z,11.33
2024-01-30T18:06:16.388Z,11.55
2024-01-30T18:09:05.137Z,11.79
2024-01-30T18:12:00.473Z,11.77
2024-01-30T18:14:47.052Z,11.97
2024-01-30T18:17:34.758Z,11.62
2024-01-30T18:23:23.891Z,9.98
2024-01-30T18:26:09.548Z,10.14
2024-01-30T18:28:55.813Z,10.81
2024-01-30T18:31:40.866Z,11.07
2024-01-30T18:34:26.492Z,11.44
2024-01-30T18:37:13.559Z,10.90
2024-01-30T18:39:58.861Z,10.83
2024-01-30T18:42:45.616Z,11.13
2024-01-30T18:45:30.963Z,11.31
2024-01-30T18:48:18.553Z,11.12
2024-01-30T18:51:03.712Z,11.12
2024-01-30T18:53:48.654Z,11.34
2024-01-30T18:56:33.910Z,11.31
2024-01-30T18:59:21.136Z,11.50
2024-01-30T19:02:06.294Z,11.52
2024-01-30T19:04:53.749Z,11.05
2024-01-30T19:07:39.499Z,11.35
2024-01-30T19:10:32.648Z,11.14
2024-01-30T19:13:24.957Z,11.17
2024-01-30T19:16:10.010Z,11.11
2024-01-30T19:18:55.228Z,11.14
2024-01-30T19:21:44.554Z,11.34
2024-01-30T19:24:42.729Z,11.56
2024-01-30T19:27:29.997Z,11.28
2024-01-30T19:30:15.094Z,10.84
2024-01-30T19:33:02.419Z,10.77
2024-01-30T19:35:47.572Z,11.31
2024-01-30T19:38:32.666Z,10.98
2024-01-30T19:41:20.890Z,11.09
2024-01-30T19:44:07.283Z,11.18
2024-01-30T19:47:00.421Z,11.18
2024-01-30T19:49:45.653Z,11.20
2024-01-30T19:52:36.922Z,11.28
2024-01-30T19:55:23.913Z,11.22
2024-01-30T20:01:11.483Z,10.93
2024-01-30T20:03:56.829Z,11.08
2024-01-30T20:06:43.061Z,11.01
2024-01-30T20:12:41.002Z,11.07
2024-01-30T20:15:26.234Z,10.80
2024-01-30T20:18:21.608Z,10.89
2024-01-30T20:21:07.137Z,10.97
2024-01-30T20:23:52.731Z,11.07
2024-01-30T20:26:42.005Z,11.04
2024-01-30T20:29:29.381Z,10.86
2024-01-30T20:32:14.378Z,11.10
2024-01-30T20:35:06.783Z,11.20
2024-01-30T20:37:53.213Z,10.93
2024-01-30T20:40:43.976Z,10.97
2024-01-30T20:43:28.985Z,10.91
2024-01-30T20:46:14.442Z,10.44
2024-01-30T20:48:59.513Z,10.83
2024-01-30T20:52:00.419Z,10.80
2024-01-30T20:54:46.875Z,9.92
2024-01-30T20:57:35.216Z,10.14
2024-01-30T21:00:29.736Z,10.57
2024-01-30T21:03:14.792Z,10.67
2024-01-30T21:06:00.223Z,10.74
2024-01-30T21:08:52.588Z,10.73
2024-01-30T21:11:46.233Z,10.24
2024-01-30T21:14:31.301Z,10.83
2024-01-30T21:17:16.295Z,10.63
2024-01-30T21:20:03.618Z,10.90
2024-01-30T21:22:50.740Z,10.91
2024-01-30T21:25:36.027Z,10.64
2024-01-30T21:28:21.513Z,11.11
2024-01-30T21:31:07.546Z,11.01
2024-01-30T21:33:52.400Z,10.86
2024-01-30T21:36:37.282Z,11.02
2024-01-30T21:39:22.421Z,10.15
2024-01-30T21:42:07.743Z,10.09
2024-01-30T21:44:52.594Z,10.35
2024-01-30T21:47:37.972Z,10.65
2024-01-30T21:50:23.384Z,9.63
2024-01-30T21:53:08.624Z,10.05
2024-01-30T21:55:53.809Z,10.45
2024-01-30T21:58:39.282Z,10.73
2024-01-30T22:01:24.482Z,10.97
2024-01-30T22:04:11.696Z,10.92
2024-01-30T22:06:56.830Z,10.66
2024-01-30T22:09:41.839Z,10.66
2024-01-30T22:12:26.985Z,10.73
2024-01-30T22:15:12.244Z,10.74
2024-01-30T22:17:57.505Z,10.60
2024-01-30T22:20:42.925Z,10.76
2024-01-30T22:23:28.103Z,10.53
2024-01-30T22:26:13.469Z,10.52
2024-01-30T22:28:58.783Z,10.63
2024-01-30T22:31:44.002Z,10.51
2024-01-30T22:34:29.358Z,10.36
2024-01-30T22:37:14.210Z,10.44
2024-01-30T22:39:59.513Z,10.68
2024-01-30T22:42:44.686Z,10.34
2024-01-30T22:45:29.932Z,10.01
2024-01-30T22:48:15.073Z,10.31
2024-01-30T22:51:00.328Z,10.39
2024-01-30T22:53:45.365Z,10.40
2024-01-30T22:56:30.488Z,10.53
2024-01-30T22:59:15.408Z,10.45
2024-01-30T23:02:00.553Z,10.48
2024-01-30T23:04:45.617Z,10.48
2024-01-30T23:07:30.801Z,10.23
2024-01-30T23:10:16.000Z,10.53
2024-01-30T23:13:01.321Z,10.40
2024-01-30T23:15:46.580Z,10.48
2024-01-30T23:18:31.878Z,10.23
2024-01-30T23:21:17.086Z,10.47
2024-01-30T23:24:02.490Z,10.10
2024-01-30T23:26:47.649Z,9.89
2024-01-30T23:29:32.920Z,10.20
2024-01-30T23:32:25.732Z,10.13
2024-01-30T23:35:15.806Z,10.38
2024-01-30T23:38:00.841Z,10.22
2024-01-30T23:40:46.027Z,10.11
2024-01-30T23:43:31.278Z,10.35
2024-01-30T23:46:16.434Z,10.47
2024-01-30T23:49:01.906Z,10.56
2024-01-30T23:51:46.885Z,10.48
2024-01-30T23:54:32.216Z,10.31
2024-01-30T23:57:17.442Z,9.97
